Airfield :
LOGIN :

Register | Disclaimer

   EN    FR    IT 

 










Legend :    VFR   Marginal VFR   IFR   Intensive IFR   Very Intensive IFR
Visi :
Ceiling :
>= 8 km
>= 3000ft
5 to 8 km
1000 to 3000 ft
1500m to 5 km
500 to 1000 ft
800 to 1500m
200 to 500 ft
< 800m
< 200 ft
Symbols :   Thunderstorms  Fog  Heavy snow  Heavy precipitations  Wind > 20 kt
SIGMETs :     Misc.  Thunderstorms  Icing  Turbulence  Mountain Waves  Volcanic Ashes






- Airport Elevation : 656 ft


UUBC - Grabtsevo

CURRENT METAR :
  • 230200Z 05002MPS 9999 BKN005 17/17 Q1012 R31/CLRD60 NOSIG RMK QFE742/0990

EXPIRED METARs :
  • 230130Z 06002MPS 030V100 9999 BKN005 17/17 Q1012 R31/CLRD60 NOSIG RMK QFE742/0990
  • 230100Z 04002MPS 020V080 9999 SCT005 17/17 Q1012 R31/CLRD60 NOSIG RMK QFE742/0989
  • 230030Z 06002MPS 9999 SCT005 17/17 Q1012 R31/CLRD60 NOSIG RMK QFE742/0989
  • 230000Z 08002MPS 050V120 9999 SCT004 17/17 Q1012 R31/CLRD60 NOSIG RMK QFE742/0989
  • 222330Z 06002MPS 030V100 9999 SCT003 17/17 Q1012 R31/CLRD60 NOSIG RMK QFE742/0989
  • 222300Z 05002MPS CAVOK 17/17 Q1012 R31/CLRD60 NOSIG RMK QFE742/0989
  • 222230Z 06002MPS 9999 SCT045 17/17 Q1012 R31/CLRD60 NOSIG RMK QFE742/0989
  • 222200Z 06002MPS 9999 SCT045 17/17 Q1011 R31/CLRD60 NOSIG RMK QFE742/0989
  • 222130Z VRB01MPS 9999 SCT045 17/17 Q1011 R31/CLRD60 NOSIG RMK QFE742/0989

TAF TAF UUBC
Valid from the 23 at 00:00 until the 23 at 09:00 UTC


222257Z 2300/2309 VRB01MPS 6000 SCT020
TEMPO 2300/2303 0500 FG VV002



MET'MAP, your aeronautical weather chart ! - Copyright ORBIFLY December 2007 - Disclaimer

ORBIFLY MET'MAP TEAM :

Programming & Development : Alexandra Zaïnal
Original concept : Baudouin d'Aumeries
Technical & hardware support : Manuel Goepfert
Assistance : Marc-Olivier Méhu




SOURCES & CREDITS :

   NOAA